createdAt,value
2023-01-20T12:01:50.843Z,25.67
2023-01-20T12:02:50.644Z,24.54
2023-01-20T12:03:50.706Z,25.51
2023-01-20T12:04:50.863Z,24.97
2023-01-20T12:05:50.625Z,24.59
2023-01-20T12:06:50.711Z,24.86
2023-01-20T12:07:50.602Z,25.24
2023-01-20T12:08:50.796Z,26.10
2023-01-20T12:09:50.581Z,23.63
2023-01-20T12:10:50.569Z,24.81
2023-01-20T12:11:50.660Z,25.08
2023-01-20T12:12:50.562Z,26.04
2023-01-20T12:13:50.553Z,25.51
2023-01-20T12:14:50.532Z,24.76
2023-01-20T12:15:50.526Z,25.13
2023-01-20T12:16:50.501Z,26.15
2023-01-20T12:17:50.531Z,25.29
2023-01-20T12:19:01.715Z,24.33
2023-01-20T12:19:51.520Z,24.11
2023-01-20T12:20:55.304Z,24.70
2023-01-20T12:21:50.452Z,23.79
2023-01-20T12:22:50.444Z,24.92
2023-01-20T12:23:50.440Z,26.04
2023-01-20T12:24:51.032Z,25.62
2023-01-20T12:25:50.613Z,26.15
2023-01-20T12:26:50.407Z,24.76
2023-01-20T12:27:50.387Z,25.29
2023-01-20T12:28:50.402Z,24.81
2023-01-20T12:29:50.380Z,25.02
2023-01-20T12:30:50.551Z,25.24
2023-01-20T12:31:50.452Z,25.13
2023-01-20T12:32:50.346Z,24.38
2023-01-20T12:33:50.491Z,25.13
2023-01-20T12:34:50.324Z,24.92
2023-01-20T12:35:50.529Z,25.45
2023-01-20T12:36:50.317Z,25.19
2023-01-20T12:37:50.288Z,24.59
2023-01-20T12:38:50.300Z,24.86
2023-01-20T12:39:50.277Z,25.02
2023-01-20T12:40:50.263Z,24.86
2023-01-20T12:41:50.268Z,24.33
2023-01-20T12:42:50.244Z,25.62
2023-01-20T12:43:50.240Z,25.51
2023-01-20T12:44:50.234Z,25.24
2023-01-20T12:45:50.275Z,24.65
2023-01-20T12:46:50.313Z,25.19
2023-01-20T12:47:50.202Z,26.47
2023-01-20T12:48:50.181Z,25.72
2023-01-20T12:49:50.230Z,25.56
2023-01-20T12:50:50.161Z,24.33
2023-01-20T12:51:50.148Z,25.02
2023-01-20T12:52:50.139Z,25.62
2023-01-20T12:53:50.135Z,25.19
2023-01-20T12:54:50.120Z,24.76
2023-01-20T12:55:50.109Z,25.24
2023-01-20T12:56:56.119Z,24.49
2023-01-20T12:57:50.082Z,24.92
2023-01-20T12:58:56.076Z,25.83
2023-01-20T12:59:50.061Z,24.97
2023-01-20T13:00:50.118Z,24.65
2023-01-20T13:01:50.067Z,25.13
2023-01-20T13:02:56.094Z,25.72
2023-01-20T13:03:50.039Z,26.15
2023-01-20T13:04:50.035Z,25.29
2023-01-20T13:05:50.038Z,25.13
2023-01-20T13:06:50.202Z,25.94
2023-01-20T13:07:49.991Z,26.21
2023-01-20T13:08:50.075Z,24.97
2023-01-20T13:09:50.178Z,23.74
2023-01-20T13:10:55.960Z,24.92
2023-01-20T13:11:49.940Z,24.81
2023-01-20T13:12:55.954Z,25.08
2023-01-20T13:13:57.283Z,25.56
2023-01-20T13:14:50.946Z,24.92
2023-01-20T13:15:49.902Z,24.65
2023-01-20T13:16:50.010Z,25.19
2023-01-20T13:17:49.881Z,24.92
2023-01-20T13:18:49.868Z,25.72
2023-01-20T13:19:49.860Z,25.40
2023-01-20T13:20:49.850Z,25.40
2023-01-20T13:22:06.623Z,24.70
2023-01-20T13:22:56.977Z,24.65
2023-01-20T13:23:49.817Z,25.56
2023-01-20T13:24:49.806Z,25.67
2023-01-20T13:25:49.808Z,24.49
2023-01-20T13:26:49.814Z,24.70
2023-01-20T13:27:51.250Z,25.67
2023-01-20T13:28:51.840Z,24.86
2023-01-20T13:29:49.758Z,24.65
2023-01-20T13:30:49.892Z,25.13
2023-01-20T13:31:49.890Z,25.99
2023-01-20T13:32:49.737Z,26.15
2023-01-20T13:33:49.815Z,25.19
2023-01-20T13:34:49.709Z,25.08
2023-01-20T13:35:49.710Z,25.94
2023-01-20T13:36:49.889Z,25.13
2023-01-20T13:37:49.706Z,25.56
2023-01-20T13:38:49.661Z,25.19
2023-01-20T13:39:55.670Z,25.13
2023-01-20T13:40:49.640Z,25.29
2023-01-20T13:41:49.631Z,25.08
2023-01-20T13:42:49.631Z,25.19
2023-01-20T13:43:49.630Z,25.40
2023-01-20T13:44:49.595Z,24.97
2023-01-20T13:45:49.610Z,25.72
2023-01-20T13:46:49.592Z,24.70
2023-01-20T13:47:49.677Z,25.94
2023-01-20T13:48:49.564Z,24.65
2023-01-20T13:49:49.546Z,26.31
2023-01-20T13:50:49.555Z,25.08
2023-01-20T13:51:49.529Z,25.02
2023-01-20T13:52:49.619Z,25.62
2023-01-20T13:53:49.535Z,25.13
2023-01-20T13:54:49.500Z,23.84
2023-01-20T13:55:49.490Z,24.38
2023-01-20T13:56:55.500Z,24.54
2023-01-20T13:57:49.471Z,25.35
2023-01-20T13:58:49.560Z,24.65
2023-01-20T13:59:49.459Z,26.04
2023-01-20T14:00:49.439Z,25.35
2023-01-20T14:01:49.425Z,24.70
2023-01-20T14:02:49.437Z,24.86
2023-01-20T14:03:49.604Z,25.19
2023-01-20T14:04:49.392Z,25.88
2023-01-20T14:05:49.390Z,25.99
2023-01-20T14:06:49.453Z,25.35
2023-01-20T14:07:49.371Z,25.45
2023-01-20T14:08:49.358Z,25.08
2023-01-20T14:09:49.422Z,26.31
2023-01-20T14:10:49.331Z,24.81
2023-01-20T14:11:49.326Z,24.65
2023-01-20T14:12:49.308Z,25.24
2023-01-20T14:13:49.303Z,25.45
2023-01-20T14:14:49.303Z,24.65
2023-01-20T14:15:49.332Z,24.43
2023-01-20T14:16:49.274Z,25.72
2023-01-20T14:17:49.280Z,25.94
2023-01-20T14:18:49.273Z,25.24
2023-01-20T14:19:49.241Z,25.19
2023-01-20T14:20:49.228Z,25.24
2023-01-20T14:21:49.210Z,25.51
2023-01-20T14:22:49.201Z,25.56
2023-01-20T14:23:49.298Z,25.24
2023-01-20T14:24:49.203Z,25.78
2023-01-20T14:25:49.196Z,24.97
2023-01-20T14:26:49.368Z,25.02
2023-01-20T14:27:49.150Z,25.13
2023-01-20T14:28:49.141Z,24.92
2023-01-20T14:29:49.143Z,25.02
2023-01-20T14:30:50.874Z,25.78
2023-01-20T14:31:49.168Z,24.70
2023-01-20T14:32:49.105Z,24.97
2023-01-20T14:33:49.095Z,24.65
2023-01-20T14:34:49.103Z,25.13
2023-01-20T14:35:49.098Z,24.97
2023-01-20T14:36:49.273Z,24.59
2023-01-20T14:37:49.255Z,24.76
2023-01-20T14:38:57.220Z,25.29
2023-01-20T14:39:50.128Z,24.49
2023-01-20T14:40:49.021Z,24.86
2023-01-20T14:41:49.099Z,25.94
2023-01-20T14:42:49.003Z,25.13
2023-01-20T14:43:48.993Z,25.08
2023-01-20T14:44:49.001Z,25.88
2023-01-20T14:45:48.966Z,25.99
2023-01-20T14:46:48.986Z,25.08
2023-01-20T14:47:48.951Z,25.83
2023-01-20T14:48:48.936Z,24.97
2023-01-20T14:49:48.938Z,24.65
2023-01-20T14:50:48.965Z,25.67
2023-01-20T14:51:48.898Z,25.29
2023-01-20T14:52:48.894Z,25.62
2023-01-20T14:53:48.926Z,25.29
2023-01-20T14:54:48.887Z,24.70
2023-01-20T14:55:48.868Z,25.94
2023-01-20T14:56:48.857Z,24.54
2023-01-20T14:57:48.881Z,25.24
2023-01-20T14:58:48.833Z,24.92
2023-01-20T14:59:48.872Z,24.92
2023-01-20T15:00:48.830Z,25.29
2023-01-20T15:01:48.901Z,24.16
2023-01-20T15:02:58.002Z,24.92
2023-01-20T15:03:49.827Z,26.37
2023-01-20T15:04:48.784Z,24.59
2023-01-20T15:06:21.539Z,25.08
2023-01-20T15:07:21.543Z,25.13
2023-01-20T15:08:24.328Z,24.81
2023-01-20T15:09:21.486Z,24.97
2023-01-20T15:10:21.473Z,24.86
2023-01-20T15:11:58.168Z,24.76
2023-01-20T15:12:58.383Z,24.54
2023-01-20T15:13:58.154Z,24.97
2023-01-20T15:14:58.135Z,25.56
2023-01-20T15:15:58.170Z,25.02
2023-01-20T15:16:58.122Z,25.62
2023-01-20T15:17:58.100Z,25.99
2023-01-20T15:18:58.089Z,26.10
2023-01-20T15:19:58.088Z,25.83
2023-01-20T15:21:15.683Z,24.76
2023-01-20T15:21:59.133Z,25.78
2023-01-20T15:22:58.062Z,25.78
2023-01-20T15:23:58.044Z,24.92
2023-01-20T15:24:58.035Z,25.45
2023-01-20T15:25:58.033Z,25.02
2023-01-20T15:27:04.028Z,25.13
2023-01-20T15:27:58.010Z,24.92
2023-01-20T15:28:58.030Z,24.11
2023-01-20T15:29:57.995Z,25.45
2023-01-20T15:30:58.264Z,24.54
2023-01-20T15:31:58.122Z,24.27
2023-01-20T15:32:57.990Z,25.83
2023-01-20T15:33:57.940Z,25.02
2023-01-20T15:34:59.994Z,25.19
2023-01-20T15:35:57.935Z,24.92
2023-01-20T15:36:57.935Z,25.24
2023-01-20T15:37:57.908Z,24.76
2023-01-20T15:38:57.890Z,24.43
2023-01-20T15:39:58.091Z,24.81
2023-01-20T15:40:57.869Z,25.13
2023-01-20T15:41:57.862Z,25.45
2023-01-20T15:42:57.860Z,24.92
2023-01-20T15:43:57.852Z,25.56
2023-01-20T15:44:57.870Z,24.86
2023-01-20T15:45:57.825Z,24.59
2023-01-20T15:46:57.938Z,24.97
2023-01-20T15:47:57.926Z,25.45
2023-01-20T15:48:57.799Z,25.24
2023-01-20T15:49:57.793Z,24.86
2023-01-20T15:50:57.794Z,25.83
2023-01-20T15:51:57.766Z,25.24
2023-01-20T15:52:57.782Z,25.02
2023-01-20T15:54:03.779Z,25.08
2023-01-20T15:54:57.771Z,26.21
2023-01-20T15:56:03.953Z,24.70
2023-01-20T15:56:57.920Z,25.29
2023-01-20T15:57:57.704Z,25.19
2023-01-20T15:58:57.698Z,25.19
2023-01-20T15:59:57.684Z,25.45
2023-01-20T16:00:57.726Z,25.35
2023-01-20T16:01:57.737Z,25.24
2023-01-20T16:02:57.684Z,25.
2023-01-20T16:03:57.701Z,25.
2023-01-20T16:04:57.633Z,24.
2023-01-20T16:05:57.630Z,25.
2023-01-20T16:06:57.623Z,25.
2023-01-20T16:07:57.615Z,25.
2023-01-20T16:08:57.597Z,25.
2023-01-20T16:09:57.584Z,25.
2023-01-20T16:10:57.581Z,25.
2023-01-20T16:11:57.564Z,24.
2023-01-20T16:12:57.613Z,25.
2023-01-20T16:13:57.557Z,24.
2023-01-20T16:14:57.535Z,25.
2023-01-20T16:15:57.542Z,24.
2023-01-20T16:16:57.544Z,26.
2023-01-20T16:17:57.702Z,25.
2023-01-20T16:18:57.489Z,23.
2023-01-20T16:19:57.484Z,25.
2023-01-20T16:20:57.470Z,24.
2023-01-20T16:21:57.458Z,24.
2023-01-20T16:22:57.451Z,25.
2023-01-20T16:23:57.463Z,25.
2023-01-20T16:24:57.429Z,25.
2023-01-20T16:25:57.454Z,25.
2023-01-20T16:26:57.418Z,25.
2023-01-20T16:27:57.407Z,24.
2023-01-20T16:28:57.464Z,2
2023-01-20T16:29:57.441Z,2
2023-01-20T16:30:57.412Z,24.
2023-01-20T16:32:03.541Z,25.
2023-01-20T16:32:57.363Z,24.
2023-01-20T16:33:57.350Z,25.
2023-01-20T16:34:57.331Z,24.
2023-01-20T16:35:57.324Z,24.
2023-01-20T16:36:57.309Z,25.
2023-01-20T16:37:57.302Z,25.
2023-01-20T16:38:57.337Z,2
2023-01-20T16:39:57.331Z,2
2023-01-20T16:40:57.330Z,2
2023-01-20T16:42:03.326Z,2
2023-01-20T16:42:57.325Z,2
2023-01-20T16:44:03.305Z,2
2023-01-20T16:44:57.296Z,2
2023-01-20T16:45:57.388Z,2
2023-01-20T16:46:57.485Z,2
2023-01-20T16:47:57.271Z,2
2023-01-20T16:48:57.241Z,2
2023-01-20T16:49:57.234Z,2
2023-01-20T16:50:57.264Z,2
2023-01-20T16:51:57.423Z,2
2023-01-20T16:52:57.249Z,2
2023-01-20T16:53:57.292Z,2
2023-01-20T16:55:03.193Z,2
2023-01-20T16:55:57.191Z,2
2023-01-20T16:56:57.175Z,2
2023-01-20T16:57:57.159Z,2
2023-01-20T16:58:57.160Z,2
2023-01-20T16:59:57.140Z,2
2023-01-20T17:00:57.377Z,2
2023-01-20T17:01:57.171Z,2
2023-01-20T17:02:57.106Z,2
2023-01-20T17:03:57.139Z,2
2023-01-20T17:04:57.086Z,2
2023-01-20T17:05:57.079Z,2
2023-01-20T17:06:57.069Z,2
2023-01-20T17:07:57.077Z,2
2023-01-20T17:08:57.073Z,2
2023-01-20T17:09:57.295Z,2
2023-01-20T17:10:57.031Z,2
2023-01-20T17:11:57.021Z,2
2023-01-20T17:12:57.041Z,2
2023-01-20T17:13:57.009Z,2
2023-01-20T17:14:56.985Z,2
2023-01-20T17:15:56.970Z,2
2023-01-20T17:17:02.973Z,2
2023-01-20T17:17:56.966Z,2
2023-01-20T17:18:56.941Z,2
2023-01-20T17:19:56.955Z,2
2023-01-20T17:20:57.031Z,2
2023-01-20T17:21:56.988Z,2
2023-01-20T17:22:57.112Z,2
2023-01-20T17:24:02.923Z,2
2023-01-20T17:24:56.896Z,2
2023-01-20T17:25:56.883Z,2
2023-01-20T17:26:56.867Z,2
2023-01-20T17:27:56.868Z,2
2023-01-20T17:28:56.850Z,2
2023-01-20T17:29:57.041Z,2
2023-01-20T17:30:56.893Z,2
2023-01-20T17:31:56.894Z,2
2023-01-20T17:32:56.811Z,2
2023-01-20T17:33:56.794Z,2
2023-01-20T17:34:56.785Z,2
2023-01-20T17:35:56.876Z,2
2023-01-20T17:36:56.761Z,2
2023-01-20T17:37:56.759Z,2
2023-01-20T17:38:56.751Z,2
2023-01-20T17:39:56.741Z,2
2023-01-20T17:40:56.726Z,2
2023-01-20T17:41:56.736Z,2
2023-01-20T17:42:56.714Z,2
2023-01-20T17:43:56.709Z,2
2023-01-20T17:44:56.703Z,2
2023-01-20T17:45:56.717Z,2
2023-01-20T17:47:02.679Z,2
2023-01-20T17:47:56.669Z,2
2023-01-20T17:48:56.648Z,2
2023-01-20T17:49:56.849Z,2
2023-01-20T17:50:56.669Z,2
2023-01-20T17:51:56.654Z,2
2023-01-20T17:53:02.729Z,2
2023-01-20T17:53:56.597Z,2
2023-01-20T17:54:56.601Z,2
2023-01-20T17:56:10.926Z,2
2023-01-20T17:57:03.643Z,2
2023-01-20T17:57:56.564Z,2
2023-01-20T17:58:56.556Z,2
2023-01-20T17:59:56.573Z,2
2023-01-20T18:00:56.545Z,2
2023-01-20T18:01:56.519Z,2
2023-01-20T18:02:56.505Z,2
2023-01-20T18:03:56.506Z,2
2023-01-20T18:04:56.484Z,2
2023-01-20T18:05:56.476Z,2
2023-01-20T18:06:56.488Z,2
2023-01-20T18:07:56.485Z,2
2023-01-20T18:08:56.467Z,2
2023-01-20T18:09:56.455Z,2
2023-01-20T18:10:56.450Z,2
2023-01-20T18:11:56.443Z,2
2023-01-20T18:13:02.425Z,2
2023-01-20T18:13:56.396Z,2
2023-01-20T18:14:56.383Z,2
2023-01-20T18:15:56.390Z,2
2023-01-20T18:16:56.420Z,2
2023-01-20T18:17:56.359Z,2
2023-01-20T18:18:56.360Z,2
2023-01-20T18:19:56.356Z,2
2023-01-20T18:20:56.340Z,2
2023-01-20T18:21:56.325Z,2
2023-01-20T18:22:56.524Z,2
2023-01-20T18:23:56.343Z,2
2023-01-20T18:24:56.289Z,2
2023-01-20T18:25:56.280Z,2
2023-01-20T18:26:57.887Z,2
2023-01-20T18:27:56.257Z,2
2023-01-20T18:28:56.260Z,2
2023-01-20T18:29:56.239Z,2
2023-01-20T18:30:56.292Z,2
2023-01-20T18:31:56.370Z,2
2023-01-20T18:32:56.210Z,2
2023-01-20T18:33:56.205Z,2
2023-01-20T18:34:56.385Z,2
2023-01-20T18:35:56.179Z,2
2023-01-20T18:36:56.167Z,2
2023-01-20T18:37:56.162Z,2
2023-01-20T18:38:56.148Z,2
2023-01-20T18:39:56.271Z,2
2023-01-20T18:40:56.130Z,2
2023-01-20T18:41:56.109Z,2
2023-01-20T18:42:56.102Z,2
2023-01-20T18:43:56.092Z,2
2023-01-20T18:44:56.087Z,2
2023-01-20T18:45:56.120Z,2
2023-01-20T18:46:56.067Z,2
2023-01-20T18:47:56.064Z,2
2023-01-20T18:48:56.059Z,2
2023-01-20T18:49:56.076Z,2
2023-01-20T18:50:56.061Z,2
2023-01-20T18:51:56.029Z,2
2023-01-20T18:52:56.013Z,2
2023-01-20T18:53:55.997Z,2
2023-01-20T18:54:55.991Z,2
2023-01-20T18:55:56.000Z,2
2023-01-20T18:56:55.963Z,2
2023-01-20T18:57:55.961Z,2
2023-01-20T18:58:55.969Z,2
2023-01-20T18:59:55.948Z,2
2023-01-20T19:00:55.960Z,2
2023-01-20T19:01:55.913Z,2
2023-01-20T19:02:55.913Z,2
2023-01-20T19:03:55.904Z,2
2023-01-20T19:04:55.900Z,2
2023-01-20T19:05:55.984Z,2
2023-01-20T19:06:55.876Z,2
2023-01-20T19:07:55.861Z,2
2023-01-20T19:08:55.849Z,2
2023-01-20T19:09:55.851Z,2
2023-01-20T19:10:55.832Z,2
2023-01-20T19:11:55.851Z,2
2023-01-20T19:12:56.025Z,2
2023-01-20T19:13:55.805Z,2
2023-01-20T19:14:55.792Z,2
2023-01-20T19:15:55.906Z,2
2023-01-20T19:17:01.786Z,2
2023-01-20T19:17:55.750Z,2
2023-01-20T19:19:01.780Z,2
2023-01-20T19:19:55.741Z,2
2023-01-20T19:21:01.735Z,2
2023-01-20T19:21:55.740Z,2
2023-01-20T19:22:55.707Z,2
2023-01-20T19:23:55.697Z,2
2023-01-20T19:24:55.697Z,2
2023-01-20T19:25:55.731Z,2
2023-01-20T19:26:55.667Z,2
2023-01-20T19:27:55.682Z,2
2023-01-20T19:28:55.665Z,2
2023-01-20T19:29:55.642Z,2
2023-01-20T19:30:55.779Z,2
2023-01-20T19:32:01.628Z,2
2023-01-20T19:32:55.613Z,2
2023-01-20T19:33:55.609Z,2
2023-01-20T19:34:55.600Z,2
2023-01-20T19:35:55.588Z,2
2023-01-20T19:36:55.678Z,2
2023-01-20T19:37:55.601Z,2
2023-01-20T19:38:55.548Z,2
2023-01-20T19:39:55.774Z,2
2023-01-20T19:40:55.527Z,2
2023-01-20T19:41:55.521Z,2
2023-01-20T19:42:55.517Z,2
2023-01-20T19:43:55.523Z,2
2023-01-20T19:44:55.502Z,2
2023-01-20T19:45:55.584Z,2
2023-01-20T19:46:55.466Z,2
2023-01-20T19:47:55.656Z,2
2023-01-20T19:48:55.456Z,2
2023-01-20T19:49:55.488Z,2
2023-01-20T19:50:55.535Z,2
2023-01-20T19:51:55.639Z,2
2023-01-20T19:52:55.425Z,2
2023-01-20T19:53:55.410Z,2
2023-01-20T19:54:55.416Z,2
2023-01-20T19:55:55.381Z,2
2023-01-20T19:56:55.369Z,2
2023-01-20T19:57:55.462Z,2
2023-01-20T19:58:55.375Z,2
2023-01-20T19:59:55.367Z,2
2023-01-20T20:00:55.334Z,2
2023-01-20T20:01:55.414Z,2
2023-01-20T20:02:55.344Z,2
2023-01-20T20:03:55.306Z,2
2023-01-20T20:04:55.303Z,2
2023-01-20T20:05:55.292Z,2
2023-01-20T20:06:55.281Z,2
2023-01-20T20:07:55.369Z,2
2023-01-20T20:09:01.279Z,2
2023-01-20T20:09:55.239Z,2
2023-01-20T20:10:55.472Z,2
2023-01-20T20:12:01.233Z,2
2023-01-20T20:12:55.212Z,2
2023-01-20T20:13:55.208Z,2
2023-01-20T20:14:55.421Z,2
2023-01-20T20:15:55.273Z,2
2023-01-20T20:16:55.167Z,2
2023-01-20T20:17:55.159Z,2
2023-01-20T20:19:01.167Z,2
2023-01-20T20:19:55.143Z,2
2023-01-20T20:20:55.135Z,2
2023-01-20T20:21:55.128Z,2
2023-01-20T20:22:55.122Z,2
2023-01-20T20:23:55.098Z,2
2023-01-20T20:24:55.103Z,2
2023-01-20T20:25:55.105Z,2
2023-01-20T20:26:55.086Z,2
2023-01-20T20:27:55.063Z,2
2023-01-20T20:28:55.057Z,2
2023-01-20T20:30:01.056Z,2
2023-01-20T20:30:55.123Z,2
2023-01-20T20:31:55.093Z,2
2023-01-20T20:33:01.020Z,2
2023-01-20T20:33:55.002Z,2
2023-01-20T20:34:54.987Z,2
2023-01-20T20:35:54.997Z,2
2023-01-20T20:36:54.978Z,2
2023-01-20T20:37:54.967Z,2
2023-01-20T20:38:54.954Z,2
2023-01-20T20:39:54.937Z,2
2023-01-20T20:40:54.930Z,2
2023-01-20T20:41:54.915Z,2
2023-01-20T20:42:54.911Z,2
2023-01-20T20:43:54.899Z,2
2023-01-20T20:44:54.876Z,2
2023-01-20T20:45:54.897Z,2
2023-01-20T20:46:54.867Z,2
2023-01-20T20:47:54.889Z,2
2023-01-20T20:49:31.712Z,2
2023-01-20T20:50:31.721Z,2
2023-01-20T20:51:32.020Z,2
2023-01-20T20:52:31.680Z,2
2023-01-20T20:53:31.677Z,2
2023-01-20T20:54:31.660Z,2
2023-01-20T20:55:31.651Z,2
2023-01-20T20:56:31.679Z,2
2023-01-20T20:57:31.633Z,2
2023-01-20T20:58:31.625Z,2
2023-01-20T20:59:50.388Z,2
2023-01-20T21:00:32.663Z,2
2023-01-20T21:01:31.678Z,2
2023-01-20T21:02:31.619Z,2
2023-01-20T21:03:31.622Z,2
2023-01-20T21:04:31.562Z,2
2023-01-20T21:05:31.554Z,2
2023-01-20T21:06:31.567Z,2
2023-01-20T21:07:31.640Z,2
2023-01-20T21:08:31.524Z,2
2023-01-20T21:09:31.520Z,2
2023-01-20T21:10:31.522Z,2
2023-01-20T21:11:31.486Z,2
2023-01-20T21:12:31.529Z,2
2023-01-20T21:13:31.478Z,2
2023-01-20T21:14:31.455Z,2
2023-01-20T21:15:31.460Z,2
2023-01-20T21:16:33.506Z,2
2023-01-20T21:17:31.479Z,2
2023-01-20T21:18:31.625Z,2
2023-01-20T21:19:31.437Z,2
2023-01-20T21:20:31.398Z,2
2023-01-20T21:21:31.390Z,2
2023-01-20T21:22:31.383Z,2
2023-01-20T21:23:31.386Z,2
2023-01-20T21:24:31.557Z,2
2023-01-20T21:25:31.349Z,2
2023-01-20T21:26:31.351Z,2
2023-01-20T21:27:31.326Z,2
2023-01-20T21:28:31.318Z,2
2023-01-20T21:29:31.515Z,2
2023-01-20T21:30:31.316Z,2
2023-01-20T21:31:31.788Z,2
2023-01-20T21:32:31.274Z,2
2023-01-20T21:33:31.262Z,2
2023-01-20T21:34:31.310Z,2
2023-01-20T21:35:31.275Z,2
2023-01-20T21:36:31.346Z,2
2023-01-20T21:37:37.231Z,2
2023-01-20T21:38:31.233Z,2
2023-01-20T21:39:31.213Z,2
2023-01-20T21:40:33.498Z,2
2023-01-20T21:41:31.379Z,2
2023-01-20T21:42:31.384Z,2
2023-01-20T21:43:31.158Z,2
2023-01-20T21:44:31.165Z,2
2023-01-20T21:45:31.142Z,2
2023-01-20T21:46:31.167Z,2
2023-01-20T21:47:31.118Z,2
2023-01-20T21:48:31.119Z,2
2023-01-20T21:49:31.108Z,2
2023-01-20T21:50:31.083Z,2
2023-01-20T21:51:37.165Z,2
2023-01-20T21:52:31.071Z,2
2023-01-20T21:53:31.071Z,2
2023-01-20T21:54:31.067Z,2
2023-01-20T21:55:31.040Z,2
2023-01-20T21:56:31.024Z,2
2023-01-20T21:57:31.017Z,2
2023-01-20T21:58:31.017Z,2
2023-01-20T21:59:31.004Z,2
2023-01-20T22:00:31.030Z,2
2023-01-20T22:01:30.974Z,2
2023-01-20T22:02:30.966Z,2
2023-01-20T22:03:30.967Z,2
2023-01-20T22:04:31.160Z,2
2023-01-20T22:05:31.130Z,2
2023-01-20T22:06:30.920Z,2
2023-01-20T22:07:30.931Z,2
2023-01-20T22:08:30.899Z,2
2023-01-20T22:09:30.914Z,2
2023-01-20T22:10:30.879Z,2
2023-01-20T22:11:30.863Z,2
2023-01-20T22:12:31.059Z,2
2023-01-20T22:13:31.051Z,2
2023-01-20T22:14:30.835Z,2
2023-01-20T22:15:30.827Z,2
2023-01-20T22:16:30.867Z,2
2023-01-20T22:17:30.808Z,2
2023-01-20T22:18:30.798Z,2
2023-01-20T22:19:30.784Z,2
2023-01-20T22:20:30.778Z,2
2023-01-20T22:21:30.765Z,2
2023-01-20T22:22:30.763Z,2
2023-01-20T22:23:30.768Z,2
2023-01-20T22:24:30.740Z,2
2023-01-20T22:25:30.722Z,2
2023-01-20T22:26:30.711Z,2
2023-01-20T22:27:30.907Z,2
2023-01-20T22:28:30.697Z,2
2023-01-20T22:29:30.685Z,2
2023-01-20T22:30:30.761Z,2
2023-01-20T22:31:30.738Z,2
2023-01-20T22:32:30.659Z,2
2023-01-20T22:33:30.653Z,2
2023-01-20T22:34:30.665Z,2
2023-01-20T22:35:30.619Z,2
2023-01-20T22:36:30.612Z,2
2023-01-20T22:37:30.602Z,2
2023-01-20T22:38:30.595Z,2
2023-01-20T22:39:30.639Z,2
2023-01-20T22:40:32.296Z,2
2023-01-20T22:41:30.560Z,2
2023-01-20T22:42:30.551Z,2
2023-01-20T22:43:30.540Z,2
2023-01-20T22:44:30.534Z,2
2023-01-20T22:45:30.559Z,2
2023-01-20T22:46:30.511Z,2
2023-01-20T22:47:30.509Z,2
2023-01-20T22:48:30.491Z,2
2023-01-20T22:49:32.529Z,2
2023-01-20T22:50:30.477Z,2
2023-01-20T22:51:30.464Z,2
2023-01-20T22:52:30.453Z,2
2023-01-20T22:53:36.446Z,2
2023-01-20T22:54:30.429Z,2
2023-01-20T22:55:30.444Z,2
2023-01-20T22:56:30.408Z,2
2023-01-20T22:57:36.406Z,2
2023-01-20T22:58:30.387Z,2
2023-01-20T22:59:30.380Z,2
2023-01-20T23:00:30.371Z,2
2023-01-20T23:01:30.416Z,2
2023-01-20T23:02:30.389Z,2
2023-01-20T23:03:30.335Z,2
2023-01-20T23:04:30.328Z,2
2023-01-20T23:05:30.314Z,2
2023-01-20T23:06:30.306Z,2
2023-01-20T23:07:30.309Z,2
2023-01-20T23:08:30.585Z,2
2023-01-20T23:09:30.284Z,2
2023-01-20T23:10:30.269Z,2
2023-01-20T23:11:30.283Z,2
2023-01-20T23:12:36.458Z,2
2023-01-20T23:13:30.439Z,2
2023-01-20T23:14:30.228Z,2
2023-01-20T23:15:30.223Z,2
2023-01-20T23:16:30.230Z,2
2023-01-20T23:17:30.194Z,2
2023-01-20T23:18:30.190Z,2
2023-01-20T23:19:30.173Z,2
2023-01-20T23:20:30.211Z,2
2023-01-20T23:21:30.168Z,2
2023-01-20T23:22:30.148Z,2
2023-01-20T23:23:36.141Z,2
2023-01-20T23:24:30.329Z,2
2023-01-20T23:25:30.119Z,2
2023-01-20T23:26:30.117Z,2
2023-01-20T23:27:30.121Z,2
2023-01-20T23:28:30.087Z,2
2023-01-20T23:29:30.070Z,2
2023-01-20T23:30:30.067Z,2
2023-01-20T23:31:30.184Z,2
2023-01-20T23:32:30.041Z,2
2023-01-20T23:33:30.033Z,2
2023-01-20T23:34:30.023Z,2
2023-01-20T23:35:30.009Z,2
2023-01-20T23:36:30.204Z,2
2023-01-20T23:37:29.997Z,2
2023-01-20T23:38:29.978Z,2
2023-01-20T23:39:29.975Z,2
2023-01-20T23:40:29.961Z,2
2023-01-20T23:41:29.953Z,2
2023-01-20T23:42:29.946Z,2
2023-01-20T23:43:29.954Z,2
2023-01-20T23:44:29.921Z,2
2023-01-20T23:45:30.036Z,2
2023-01-20T23:46:29.900Z,2
2023-01-20T23:47:29.892Z,2
2023-01-20T23:48:29.955Z,2
2023-01-20T23:49:31.928Z,2
2023-01-20T23:50:29.875Z,2
2023-01-20T23:51:29.858Z,2
2023-01-20T23:52:29.858Z,2
2023-01-20T23:53:29.834Z,2
2023-01-20T23:54:29.819Z,2
2023-01-20T23:55:35.839Z,2
2023-01-20T23:56:30.008Z,2
2023-01-20T23:57:29.803Z,2
2023-01-20T23:58:29.788Z,2
2023-01-20T23:59:29.795Z,2
